X  Zamknij Lotniskowe dane METAR     LYNI Nis Airport
Temperatura
102°F Temperatura
57°F Punkt rosy
23% Wilgotność



Wiatr
5 MPH
8 KM/H
2 M/S
4 KTS



Cisza
N
Warunki bieżące

Czyste Czyste
Ciśnienie 1009.82 (hPa) - 29.82 (inHg)
Widoczność 6 (mil) - 9.7 (km)
Lotnisko
Kod lotniska LYNI

Położenie: Nis Airport
Odległość: 63 (mi)

Metar:
LYNI 141400Z VRB04KT CAVOK 39/14 Q1010 NOSIG

Czas: 14-07-2024 16:00 CEST